Time;durP1;ratioP1;P1;durP2;ratioP2;P2;SDS_P1;SDS_P2;PMS_P1;PMS_P2;Temp;Humidity;BMP_temperature;BMP_pressure;BME280_temperature;BME280_humidity;BME280_pressure;Samples;Min_cycle;Max_cycle;Signal;HPM_P1;HPM_P2
2023/04/19 00:01:32;;;;;;;17.35;13.43;;;8.70;99.90;;;;;;5069732;28;20047;-80
2023/04/19 00:03:58;;;;;;;18.65;13.10;;;8.80;99.90;;;;;;5066587;28;20082;-79
2023/04/19 00:06:24;;;;;;;20.15;14.20;;;8.70;99.90;;;;;;5069633;28;20400;-80
2023/04/19 00:08:50;;;;;;;15.90;13.23;;;8.70;99.90;;;;;;5056205;28;20044;-80
2023/04/19 00:11:15;;;;;;;17.13;13.55;;;8.70;99.90;;;;;;5068799;28;20040;-80
2023/04/19 00:13:41;;;;;;;14.77;12.63;;;8.70;99.90;;;;;;5051800;28;20041;-80
2023/04/19 00:16:07;;;;;;;14.05;12.02;;;8.70;99.90;;;;;;5040438;28;20043;-79
2023/04/19 00:18:32;;;;;;;14.25;12.32;;;8.70;99.90;;;;;;5068522;28;20167;-80
2023/04/19 00:20:58;;;;;;;15.13;12.55;;;8.70;99.90;;;;;;5070845;28;20032;-80
2023/04/19 00:23:24;;;;;;;15.68;12.07;;;8.70;99.90;;;;;;5062608;28;20416;-80
2023/04/19 00:25:50;;;;;;;17.77;12.50;;;8.70;99.90;;;;;;5055619;28;20041;-80
2023/04/19 00:28:16;;;;;;;15.20;12.40;;;8.70;99.90;;;;;;5050077;28;20036;-80
2023/04/19 00:30:41;;;;;;;15.65;12.20;;;8.70;99.90;;;;;;5055952;28;20541;-80
2023/04/19 00:33:11;;;;;;;16.05;12.60;;;8.60;99.90;;;;;;5060545;28;20029;-80
2023/04/19 00:35:39;;;;;;;13.60;11.00;;;8.60;99.90;;;;;;5060007;28;20508;-80
2023/04/19 00:38:05;;;;;;;15.77;11.93;;;8.70;99.90;;;;;;5045250;28;20063;-80
2023/04/19 00:40:31;;;;;;;17.23;11.32;;;8.70;99.90;;;;;;5043561;28;20052;-80
2023/04/19 00:42:57;;;;;;;16.08;12.05;;;8.70;99.90;;;;;;5054787;28;20033;-80
2023/04/19 00:45:22;;;;;;;14.68;11.43;;;8.60;99.90;;;;;;5065390;28;20047;-79
2023/04/19 00:47:48;;;;;;;13.98;11.75;;;8.70;99.90;;;;;;5071020;28;20032;-80
2023/04/19 00:50:14;;;;;;;14.27;11.18;;;8.70;99.90;;;;;;5055387;28;20415;-80
2023/04/19 00:52:40;;;;;;;14.20;11.20;;;8.30;99.90;;;;;;5046297;28;20072;-79
2023/04/19 00:55:07;;;;;;;13.25;10.43;;;8.70;99.90;;;;;;5067792;28;20055;-80
2023/04/19 00:57:32;;;;;;;14.15;11.23;;;8.60;99.90;;;;;;5067542;28;20032;-80
2023/04/19 00:59:58;;;;;;;16.38;10.95;;;8.60;99.90;;;;;;5043145;28;20032;-79
2023/04/19 01:02:23;;;;;;;15.50;10.80;;;8.60;99.90;;;;;;5060904;28;20036;-80
2023/04/19 01:04:52;;;;;;;14.18;11.15;;;8.60;99.90;;;;;;5067491;28;20033;-80
2023/04/19 01:07:18;;;;;;;13.10;10.35;;;8.60;99.90;;;;;;5059343;28;20039;-80
2023/04/19 01:09:44;;;;;;;14.63;10.63;;;8.60;99.90;;;;;;5047163;28;20484;-80
2023/04/19 01:12:10;;;;;;;13.18;10.82;;;8.60;99.90;;;;;;5047034;28;20043;-80
2023/04/19 01:14:35;;;;;;;12.25;10.05;;;8.60;99.90;;;;;;5056463;28;20040;-80
2023/04/19 01:17:01;;;;;;;12.55;10.18;;;8.60;99.90;;;;;;5057986;28;20028;-80
2023/04/19 01:19:27;;;;;;;11.43;10.15;;;8.60;99.90;;;;;;5063348;28;20032;-79
2023/04/19 01:21:52;;;;;;;12.10;9.13;;;8.60;99.90;;;;;;5060310;28;20032;-79
2023/04/19 01:24:18;;;;;;;12.38;9.52;;;8.60;99.90;;;;;;5062910;28;20488;-80
2023/04/19 01:26:43;;;;;;;10.15;8.68;;;8.60;99.90;;;;;;5061356;28;20055;-80
2023/04/19 01:29:09;;;;;;;10.48;9.10;;;8.60;99.90;;;;;;5058308;28;20139;-80
2023/04/19 01:31:35;;;;;;;12.07;9.57;;;8.60;99.90;;;;;;5036703;28;20032;-79
2023/04/19 01:34:00;;;;;;;9.70;8.68;;;8.60;99.90;;;;;;5062901;28;20062;-80
2023/04/19 01:36:26;;;;;;;13.13;9.35;;;8.60;99.90;;;;;;5060193;28;20093;-80
2023/04/19 01:38:52;;;;;;;10.95;9.18;;;8.60;99.90;;;;;;5052942;28;20468;-80
2023/04/19 01:41:19;;;;;;;10.40;9.15;;;8.60;99.90;;;;;;5062770;28;20040;-80
2023/04/19 01:43:44;;;;;;;11.10;9.30;;;8.60;99.90;;;;;;5064470;28;20442;-80
2023/04/19 01:46:10;;;;;;;10.35;8.55;;;8.50;99.90;;;;;;5058108;28;20043;-80
2023/04/19 01:48:35;;;;;;;10.70;8.85;;;8.50;99.90;;;;;;5060462;28;20041;-80
2023/04/19 01:51:01;;;;;;;10.27;9.18;;;8.50;99.90;;;;;;5041582;28;20028;-80
2023/04/19 01:53:27;;;;;;;14.13;9.18;;;8.50;99.90;;;;;;5064681;28;20125;-80
2023/04/19 01:55:52;;;;;;;11.98;9.77;;;8.50;99.90;;;;;;5059181;28;20041;-80
2023/04/19 01:58:18;;;;;;;12.98;9.77;;;8.40;99.90;;;;;;5045391;28;20036;-80
2023/04/19 02:00:43;;;;;;;12.57;9.55;;;8.40;99.90;;;;;;5064770;28;20135;-82
2023/04/19 02:03:09;;;;;;;11.32;9.63;;;8.40;99.90;;;;;;5046859;28;20036;-80
2023/04/19 02:05:34;;;;;;;12.10;9.20;;;8.30;99.90;;;;;;5068950;28;20114;-79
2023/04/19 02:08:00;;;;;;;14.05;9.68;;;8.30;99.90;;;;;;5075165;28;20035;-79
2023/04/19 02:10:26;;;;;;;12.30;10.00;;;8.30;99.90;;;;;;5073363;28;20040;-79
2023/04/19 02:12:52;;;;;;;12.98;9.75;;;8.30;99.90;;;;;;5061216;28;20558;-80
2023/04/19 02:15:17;;;;;;;11.20;9.48;;;8.30;99.90;;;;;;5047811;28;20123;-80
2023/04/19 02:17:45;;;;;;;11.02;9.07;;;8.20;99.90;;;;;;5045362;28;20119;-80
2023/04/19 02:20:11;;;;;;;12.48;9.15;;;8.20;99.90;;;;;;5064887;28;20492;-79
2023/04/19 02:22:36;;;;;;;10.98;8.98;;;8.20;99.90;;;;;;5064577;28;20094;-79
2023/04/19 02:25:03;;;;;;;11.15;9.70;;;8.20;99.90;;;;;;5044727;28;20127;-80
2023/04/19 02:27:28;;;;;;;13.38;9.23;;;8.00;99.90;;;;;;5073772;28;20050;-79
2023/04/19 02:29:55;;;;;;;14.10;10.18;;;8.10;99.90;;;;;;5064793;28;20032;-79
2023/04/19 02:32:20;;;;;;;11.35;9.70;;;8.10;99.90;;;;;;5046380;28;20028;-79
2023/04/19 02:34:46;;;;;;;12.38;9.63;;;8.10;99.90;;;;;;5046684;28;20556;-79
2023/04/19 02:37:11;;;;;;;12.13;9.50;;;8.00;99.90;;;;;;5044026;28;20425;-80
2023/04/19 02:39:37;;;;;;;12.40;8.85;;;8.00;99.90;;;;;;5048603;28;20387;-79
2023/04/19 02:42:03;;;;;;;10.23;8.75;;;8.00;99.90;;;;;;5061679;28;20063;-80
2023/04/19 02:44:28;;;;;;;13.43;9.48;;;7.90;99.90;;;;;;5074171;28;20038;-80
2023/04/19 02:46:54;;;;;;;12.05;9.50;;;8.00;99.90;;;;;;5062439;28;20037;-80
2023/04/19 02:49:20;;;;;;;10.32;8.32;;;7.90;99.90;;;;;;5042998;28;20031;-80
2023/04/19 02:51:46;;;;;;;10.07;8.50;;;7.90;99.90;;;;;;5047331;28;20055;-80
2023/04/19 02:54:12;;;;;;;11.25;9.40;;;7.90;99.90;;;;;;5046291;28;20497;-79
2023/04/19 02:56:38;;;;;;;10.05;8.48;;;7.90;99.90;;;;;;5058659;28;20414;-80
2023/04/19 02:59:04;;;;;;;9.90;8.77;;;7.90;99.90;;;;;;5061150;28;20123;-80
2023/04/19 03:01:30;;;;;;;9.80;8.40;;;7.80;99.90;;;;;;5071633;28;20438;-80
2023/04/19 03:03:56;;;;;;;11.13;8.68;;;7.80;99.90;;;;;;5059462;28;20044;-80
2023/04/19 03:06:22;;;;;;;11.90;8.85;;;7.80;99.90;;;;;;5072667;28;20043;-80
2023/04/19 03:08:47;;;;;;;12.10;9.23;;;7.80;99.90;;;;;;5069970;28;20033;-79
2023/04/19 03:11:15;;;;;;;9.40;8.40;;;7.80;99.90;;;;;;5044838;28;20055;-79
2023/04/19 03:13:40;;;;;;;11.70;8.90;;;7.80;99.90;;;;;;5057527;28;20036;-80
2023/04/19 03:16:07;;;;;;;12.80;8.35;;;7.70;99.90;;;;;;5066870;28;20043;-80
2023/04/19 03:18:32;;;;;;;10.85;8.35;;;7.70;99.90;;;;;;5041056;28;20047;-79
2023/04/19 03:20:58;;;;;;;11.68;8.65;;;7.70;99.90;;;;;;5065751;28;20036;-79
2023/04/19 03:23:25;;;;;;;10.80;8.98;;;7.60;99.90;;;;;;5066128;28;20097;-79
2023/04/19 03:25:51;;;;;;;9.75;8.52;;;7.60;99.90;;;;;;5057354;28;20045;-80
2023/04/19 03:28:16;;;;;;;13.70;9.05;;;7.50;99.90;;;;;;5043373;28;20046;-78
2023/04/19 03:30:42;;;;;;;13.77;9.13;;;8.00;99.90;;;;;;5049640;28;20032;-79
2023/04/19 03:33:07;;;;;;;11.55;8.52;;;7.40;99.90;;;;;;5055439;28;20072;-80
2023/04/19 03:35:33;;;;;;;13.35;9.07;;;7.30;99.90;;;;;;5039078;28;20036;-80
2023/04/19 03:37:58;;;;;;;10.45;9.35;;;7.30;99.90;;;;;;5053626;28;20040;-80
2023/04/19 03:40:24;;;;;;;11.82;9.10;;;7.20;99.90;;;;;;5068364;28;20166;-79
2023/04/19 03:42:49;;;;;;;12.10;8.85;;;7.10;99.90;;;;;;5052225;28;20090;-79
2023/04/19 03:45:15;;;;;;;10.75;9.65;;;7.00;99.90;;;;;;5055618;28;20044;-80
2023/04/19 03:47:41;;;;;;;11.85;10.02;;;6.90;99.90;;;;;;5059482;28;20056;-79
2023/04/19 03:50:07;;;;;;;12.48;9.82;;;6.80;99.90;;;;;;5067328;28;20040;-80
2023/04/19 03:52:32;;;;;;;11.55;9.52;;;6.70;99.90;;;;;;5063873;28;20399;-79
2023/04/19 03:54:58;;;;;;;12.00;9.10;;;6.60;99.90;;;;;;5072506;28;20032;-80
2023/04/19 03:57:24;;;;;;;13.70;9.40;;;6.50;99.90;;;;;;5073317;28;20704;-80
2023/04/19 03:59:50;;;;;;;10.68;8.85;;;6.50;99.90;;;;;;5063301;28;20624;-80
2023/04/19 04:02:15;;;;;;;13.10;9.82;;;6.40;99.90;;;;;;5062049;28;20223;-79
2023/04/19 04:04:41;;;;;;;10.73;9.35;;;6.30;99.90;;;;;;5070743;28;20056;-79
2023/04/19 04:07:06;;;;;;;13.25;9.63;;;6.30;99.90;;;;;;5062357;28;20036;-79
2023/04/19 04:09:32;;;;;;;14.63;10.25;;;6.20;99.90;;;;;;5067038;28;20039;-79
2023/04/19 04:11:57;;;;;;;11.65;9.60;;;6.20;99.90;;;;;;5048756;28;20035;-79
2023/04/19 04:14:23;;;;;;;13.00;9.20;;;6.20;99.90;;;;;;5053501;28;20480;-80
2023/04/19 04:16:49;;;;;;;13.70;9.38;;;6.10;99.90;;;;;;5044088;28;20467;-79
2023/04/19 04:19:15;;;;;;;12.40;9.82;;;6.10;99.90;;;;;;5062593;28;20056;-79
2023/04/19 04:21:40;;;;;;;13.35;9.35;;;6.10;99.90;;;;;;5052666;28;20036;-80
2023/04/19 04:24:06;;;;;;;11.43;9.35;;;6.00;99.90;;;;;;5071233;28;20477;-80
2023/04/19 04:26:38;;;;;;;12.77;9.23;;;6.00;99.90;;;;;;5058515;28;20045;-79
2023/04/19 04:29:04;;;;;;;12.88;8.85;;;5.90;99.90;;;;;;5054666;28;20127;-79
2023/04/19 04:31:30;;;;;;;11.65;8.70;;;5.90;99.90;;;;;;5062678;28;20440;-79
2023/04/19 04:33:56;;;;;;;10.70;8.70;;;5.90;99.90;;;;;;5043743;28;20068;-79
2023/04/19 04:36:22;;;;;;;14.88;9.35;;;5.80;99.90;;;;;;5045516;28;20067;-80
2023/04/19 04:38:47;;;;;;;11.45;8.30;;;5.80;99.90;;;;;;5052811;28;20032;-79
2023/04/19 04:41:13;;;;;;;11.95;8.52;;;5.80;99.90;;;;;;5065370;28;20039;-80
2023/04/19 04:43:39;;;;;;;10.93;8.90;;;5.80;99.90;;;;;;5059476;28;20037;-79
2023/04/19 04:46:04;;;;;;;10.35;8.48;;;5.80;99.90;;;;;;5063709;28;20067;-78
2023/04/19 04:48:30;;;;;;;11.73;8.63;;;5.70;99.90;;;;;;5067307;28;20044;-78
2023/04/19 04:50:56;;;;;;;10.27;8.60;;;5.90;99.90;;;;;;5058759;28;20044;-79
2023/04/19 04:53:26;;;;;;;11.90;8.95;;;5.60;99.90;;;;;;5043111;28;20608;-79
2023/04/19 04:55:53;;;;;;;11.75;8.77;;;5.60;99.90;;;;;;5060280;28;20036;-79
2023/04/19 04:58:18;;;;;;;10.02;8.30;;;5.60;99.90;;;;;;5064062;28;20432;-79
2023/04/19 05:00:45;;;;;;;11.48;9.18;;;5.60;99.90;;;;;;5045836;28;20108;-78
2023/04/19 05:03:11;;;;;;;11.73;9.05;;;5.50;99.90;;;;;;5045830;28;20114;-82
2023/04/19 05:05:37;;;;;;;11.15;8.07;;;5.50;99.90;;;;;;5062179;28;20166;-78
2023/04/19 05:08:02;;;;;;;10.40;8.15;;;5.50;99.90;;;;;;5049809;28;20090;-79
2023/04/19 05:10:28;;;;;;;10.15;8.18;;;5.50;99.90;;;;;;5058771;28;20048;-80
2023/04/19 05:12:54;;;;;;;14.35;9.13;;;5.40;99.90;;;;;;5043932;28;20040;-79
2023/04/19 05:15:20;;;;;;;10.45;7.88;;;5.50;99.90;;;;;;5061271;28;20032;-78
2023/04/19 05:17:46;;;;;;;15.23;8.77;;;5.50;99.90;;;;;;5059839;28;20147;-79
2023/04/19 05:20:11;;;;;;;10.25;7.65;;;5.50;99.90;;;;;;5042652;28;20089;-78
2023/04/19 05:22:37;;;;;;;10.65;8.18;;;5.50;99.90;;;;;;5044909;28;20040;-79
2023/04/19 05:25:03;;;;;;;11.05;7.85;;;5.50;99.90;;;;;;5044179;28;20045;-80
2023/04/19 05:27:29;;;;;;;9.02;7.80;;;5.50;99.90;;;;;;5058543;28;20040;-79
2023/04/19 05:29:54;;;;;;;9.90;7.47;;;5.50;99.90;;;;;;5063230;28;20059;-80
2023/04/19 05:32:20;;;;;;;11.43;7.80;;;5.60;99.90;;;;;;5043845;28;20051;-80
2023/04/19 05:34:46;;;;;;;9.73;8.10;;;5.60;99.90;;;;;;5043696;28;20385;-80
2023/04/19 05:37:11;;;;;;;10.50;7.18;;;5.50;99.90;;;;;;5058846;28;20020;-79
2023/04/19 05:39:37;;;;;;;12.27;7.40;;;5.60;99.90;;;;;;5046562;28;20527;-80
2023/04/19 05:42:02;;;;;;;11.13;7.28;;;5.60;99.90;;;;;;5063338;28;20040;-80
2023/04/19 05:44:28;;;;;;;9.07;7.38;;;5.60;99.90;;;;;;5063832;28;20047;-80
2023/04/19 05:46:54;;;;;;;8.30;7.30;;;5.70;99.90;;;;;;5051814;28;20040;-79
2023/04/19 05:49:19;;;;;;;11.20;7.03;;;5.70;99.90;;;;;;5056219;28;20189;-81
2023/04/19 05:51:45;;;;;;;10.77;7.22;;;5.80;99.90;;;;;;5048681;28;20044;-83
2023/04/19 05:54:12;;;;;;;11.43;7.40;;;5.80;99.90;;;;;;5060623;28;20040;-81
2023/04/19 05:56:38;;;;;;;8.75;6.95;;;5.90;99.90;;;;;;5051783;28;20028;-80
2023/04/19 05:59:04;;;;;;;7.75;6.25;;;5.90;99.90;;;;;;5060677;28;20094;-83
2023/04/19 06:01:29;;;;;;;9.38;6.20;;;6.00;99.90;;;;;;5070207;28;20036;-82
2023/04/19 06:03:55;;;;;;;8.02;6.55;;;5.90;99.90;;;;;;5058787;28;20033;-81
2023/04/19 06:06:22;;;;;;;7.55;6.68;;;6.20;99.90;;;;;;5050936;28;20047;-78
2023/04/19 06:08:48;;;;;;;9.63;5.90;;;6.20;99.90;;;;;;5051722;28;20036;-82
2023/04/19 06:11:13;;;;;;;8.68;5.93;;;6.30;99.90;;;;;;5059476;28;20086;-79
2023/04/19 06:13:39;;;;;;;7.60;6.05;;;6.40;99.90;;;;;;5072937;28;20099;-74
2023/04/19 06:16:05;;;;;;;8.25;5.78;;;6.60;99.90;;;;;;5089581;28;20110;-78
2023/04/19 06:18:31;;;;;;;6.40;5.18;;;6.60;99.90;;;;;;5062744;28;20119;-79
2023/04/19 06:20:56;;;;;;;8.63;5.15;;;6.70;99.90;;;;;;5057480;28;20596;-79
2023/04/19 06:23:22;;;;;;;7.43;5.38;;;6.80;99.90;;;;;;5064928;28;20523;-79
2023/04/19 06:25:48;;;;;;;9.07;5.38;;;6.90;99.90;;;;;;5040676;28;20420;-80
2023/04/19 06:28:14;;;;;;;7.60;5.90;;;7.00;99.90;;;;;;5049819;28;20510;-79
2023/04/19 06:30:39;;;;;;;5.95;4.95;;;7.00;99.90;;;;;;5046991;28;20040;-79
2023/04/19 06:33:05;;;;;;;6.18;4.95;;;7.10;99.90;;;;;;5068581;28;20043;-78
2023/04/19 06:35:31;;;;;;;6.28;4.60;;;7.10;99.90;;;;;;5064622;28;20063;-80
2023/04/19 06:37:58;;;;;;;8.80;5.20;;;7.20;99.90;;;;;;5070199;28;20123;-78
2023/04/19 06:40:25;;;;;;;10.82;4.95;;;7.30;99.90;;;;;;5068721;28;20529;-80
2023/04/19 06:42:51;;;;;;;6.03;5.00;;;7.30;99.90;;;;;;5058197;28;20033;-80
2023/04/19 06:45:17;;;;;;;6.47;4.93;;;7.40;99.90;;;;;;5044476;28;20068;-78
2023/04/19 06:47:45;;;;;;;6.30;5.18;;;7.40;99.90;;;;;;5071186;28;20665;-80
2023/04/19 06:50:11;;;;;;;5.43;4.40;;;7.40;99.90;;;;;;5043008;28;20059;-80
2023/04/19 06:52:37;;;;;;;6.38;4.32;;;7.50;99.90;;;;;;5054302;28;20036;-80
2023/04/19 06:55:04;;;;;;;6.88;4.72;;;7.50;99.90;;;;;;5069540;28;20815;-80
2023/04/19 06:57:29;;;;;;;5.38;4.25;;;7.50;99.90;;;;;;5049694;28;20081;-78
2023/04/19 06:59:55;;;;;;;6.63;4.60;;;7.60;99.90;;;;;;5057824;28;20032;-80
2023/04/19 07:02:21;;;;;;;5.50;4.30;;;7.70;99.90;;;;;;5068462;28;20068;-78
2023/04/19 07:04:46;;;;;;;5.68;3.80;;;7.80;99.90;;;;;;5100484;28;20051;-79
2023/04/19 07:07:12;;;;;;;4.00;3.58;;;7.80;99.90;;;;;;5044888;28;20139;-79
2023/04/19 07:09:38;;;;;;;6.95;4.07;;;7.90;99.90;;;;;;5062592;28;20045;-79
2023/04/19 07:12:05;;;;;;;4.00;3.50;;;7.90;99.90;;;;;;5068041;28;20051;-80
2023/04/19 07:14:30;;;;;;;4.45;3.88;;;8.00;99.90;;;;;;5057086;28;20530;-79
2023/04/19 07:16:56;;;;;;;6.97;3.97;;;8.00;99.90;;;;;;5065156;28;20028;-80
2023/04/19 07:19:21;;;;;;;4.88;3.38;;;8.10;99.90;;;;;;5061798;28;20655;-79
2023/04/19 07:21:47;;;;;;;7.13;3.80;;;8.20;99.90;;;;;;5058271;28;20032;-80
2023/04/19 07:24:13;;;;;;;6.25;3.70;;;8.30;99.90;;;;;;5059203;28;20044;-79
2023/04/19 07:26:38;;;;;;;4.10;3.63;;;8.70;99.90;;;;;;5057572;28;20407;-78
2023/04/19 07:29:04;;;;;;;6.03;3.40;;;8.50;99.90;;;;;;5038006;28;20036;-79
2023/04/19 07:31:30;;;;;;;3.60;3.08;;;8.50;99.90;;;;;;5074255;28;20409;-79
2023/04/19 07:33:56;;;;;;;3.58;3.20;;;8.80;99.90;;;;;;5057009;28;20035;-79
2023/04/19 07:36:21;;;;;;;4.22;3.33;;;9.10;99.90;;;;;;5045863;28;20477;-79
2023/04/19 07:38:47;;;;;;;4.72;2.90;;;9.30;99.90;;;;;;5061824;28;20077;-79
2023/04/19 07:41:12;;;;;;;4.43;3.70;;;9.50;99.90;;;;;;5048213;28;20413;-81
2023/04/19 07:43:38;;;;;;;3.47;3.13;;;9.70;99.90;;;;;;5061461;28;20052;-79
2023/04/19 07:46:17;;;;;;;3.67;2.53;;;9.90;99.90;;;;;;5055384;28;20059;-79
2023/04/19 07:48:43;;;;;;;4.65;2.60;;;10.00;99.90;;;;;;5060256;28;20362;-79
2023/04/19 07:51:13;;;;;;;2.67;2.47;;;10.20;99.90;;;;;;5069928;28;20105;-78
2023/04/19 07:53:40;;;;;;;3.25;2.95;;;10.40;99.90;;;;;;5057883;28;20690;-79
2023/04/19 07:56:10;;;;;;;3.75;2.95;;;10.60;99.90;;;;;;5050501;28;20054;-79
2023/04/19 07:58:36;;;;;;;4.60;2.92;;;10.80;99.90;;;;;;5044362;28;20044;-78
2023/04/19 08:01:02;;;;;;;4.55;2.53;;;10.90;99.90;;;;;;5057737;28;20039;-79
2023/04/19 08:03:35;;;;;;;5.28;2.53;;;11.00;99.90;;;;;;5075300;28;20036;-79
2023/04/19 08:06:07;;;;;;;3.00;2.38;;;11.10;99.90;;;;;;5073647;28;20408;-79
2023/04/19 08:08:32;;;;;;;4.97;3.05;;;11.20;99.90;;;;;;5073241;28;20079;-79
2023/04/19 08:10:58;;;;;;;5.05;2.40;;;11.40;95.90;;;;;;5067436;28;20090;-81
2023/04/19 08:13:23;;;;;;;3.47;3.17;;;11.50;96.60;;;;;;5067374;28;20032;-79
2023/04/19 08:15:49;;;;;;;3.90;2.97;;;11.70;93.30;;;;;;5074797;28;20028;-79
2023/04/19 08:18:15;;;;;;;7.13;3.28;;;12.00;87.00;;;;;;5054118;28;20044;-80
2023/04/19 08:20:43;;;;;;;6.07;3.10;;;12.00;70.50;;;;;;5070553;28;20044;-79
2023/04/19 08:23:10;;;;;;;3.65;2.88;;;12.10;65.60;;;;;;5072977;28;20055;-79
2023/04/19 08:25:35;;;;;;;3.00;2.70;;;12.20;63.20;;;;;;5054067;28;20055;-79
2023/04/19 08:28:01;;;;;;;4.43;2.90;;;12.40;64.20;;;;;;5052024;28;20037;-78
2023/04/19 08:30:27;;;;;;;4.88;3.15;;;12.50;63.20;;;;;;5052881;28;20044;-79
2023/04/19 08:32:52;;;;;;;3.22;2.90;;;12.60;60.40;;;;;;5067711;28;20037;-79
2023/04/19 08:35:19;;;;;;;4.93;3.08;;;12.80;60.90;;;;;;5065463;28;20038;-80
2023/04/19 08:37:44;;;;;;;3.85;3.38;;;13.10;60.30;;;;;;5051806;28;20514;-78
2023/04/19 08:40:10;;;;;;;5.78;3.67;;;13.30;60.20;;;;;;5069744;28;20119;-79
2023/04/19 08:42:36;;;;;;;4.93;3.65;;;13.50;60.00;;;;;;5065778;28;20446;-79
2023/04/19 08:45:04;;;;;;;3.42;3.13;;;13.70;60.00;;;;;;5062068;28;20040;-79
2023/04/19 08:47:32;;;;;;;3.85;3.40;;;13.80;60.10;;;;;;5049533;28;20035;-79
2023/04/19 08:50:00;;;;;;;4.90;3.20;;;14.00;59.70;;;;;;5057412;28;20086;-78
2023/04/19 08:52:26;;;;;;;4.22;3.20;;;14.20;59.40;;;;;;5047794;28;20048;-80
2023/04/19 08:54:54;;;;;;;7.22;3.40;;;14.50;59.30;;;;;;5063857;28;20046;-80
2023/04/19 08:57:19;;;;;;;5.03;3.47;;;14.60;58.00;;;;;;5052191;28;20111;-80
2023/04/19 08:59:48;;;;;;;3.35;2.70;;;14.60;57.40;;;;;;5059975;28;20076;-79
2023/04/19 09:02:14;;;;;;;3.85;2.92;;;14.80;56.50;;;;;;5060366;28;20569;-79
2023/04/19 09:04:40;;;;;;;3.55;3.20;;;14.90;56.60;;;;;;5066437;28;20040;-79
2023/04/19 09:07:07;;;;;;;4.25;3.50;;;15.20;56.80;;;;;;5054647;28;20148;-80
2023/04/19 09:09:34;;;;;;;3.65;3.15;;;15.40;56.40;;;;;;5063448;28;20135;-80
2023/04/19 09:12:00;;;;;;;3.30;3.00;;;15.60;56.50;;;;;;5047854;28;20048;-80
2023/04/19 09:14:27;;;;;;;3.55;3.22;;;15.60;55.50;;;;;;5043449;28;20051;-79
2023/04/19 09:16:53;;;;;;;4.00;3.38;;;15.60;54.80;;;;;;5067321;28;20067;-80
2023/04/19 09:19:19;;;;;;;4.40;3.42;;;15.70;54.20;;;;;;5051411;28;20142;-79
2023/04/19 09:21:45;;;;;;;3.97;3.03;;;15.70;53.70;;;;;;5060962;28;20043;-80
2023/04/19 09:24:11;;;;;;;2.83;2.63;;;15.70;53.10;;;;;;5075972;28;20044;-80
2023/04/19 09:26:36;;;;;;;3.83;3.13;;;15.90;52.30;;;;;;5060199;28;20041;-80
2023/04/19 09:29:06;;;;;;;4.20;2.42;;;16.00;51.80;;;;;;5068455;28;20066;-80
2023/04/19 09:31:34;;;;;;;3.83;3.30;;;16.20;51.60;;;;;;5060529;28;20138;-79
2023/04/19 09:34:17;;;;;;;3.20;2.85;;;16.20;50.30;;;;;;5052293;28;20036;-79
2023/04/19 09:36:43;;;;;;;5.50;3.00;;;16.20;47.40;;;;;;5056174;28;20040;-80
2023/04/19 09:39:10;;;;;;;3.40;3.10;;;16.10;49.60;;;;;;5073045;28;20036;-80
2023/04/19 09:41:51;;;;;;;4.20;3.08;;;16.10;49.50;;;;;;5072159;28;20043;-81
2023/04/19 09:44:17;;;;;;;3.97;3.15;;;16.30;45.40;;;;;;5056309;28;20471;-80
2023/04/19 09:46:44;;;;;;;3.88;2.65;;;16.40;48.80;;;;;;5049799;28;20068;-80
2023/04/19 09:49:13;;;;;;;4.53;2.78;;;16.60;48.50;;;;;;5060086;28;20171;-79
2023/04/19 09:51:43;;;;;;;4.93;2.97;;;16.60;47.90;;;;;;5066018;28;20050;-80
2023/04/19 09:54:11;;;;;;;3.72;2.75;;;16.80;48.20;;;;;;5057236;28;20115;-80
2023/04/19 09:56:37;;;;;;;4.57;2.60;;;17.00;47.40;;;;;;5071636;28;20496;-79
2023/04/19 09:59:04;;;;;;;3.53;2.75;;;17.00;47.20;;;;;;5067115;28;20065;-80
2023/04/19 10:01:53;;;;;;;4.03;3.00;;;17.10;47.60;;;;;;5064934;28;20063;-81
2023/04/19 10:04:23;;;;;;;3.55;2.85;;;17.50;47.00;;;;;;5057107;28;20489;-80
2023/04/19 10:06:50;;;;;;;5.60;2.92;;;17.50;47.50;;;;;;5048418;28;20073;-80
2023/04/19 10:09:24;;;;;;;5.55;2.80;;;17.60;48.10;;;;;;5059460;28;20055;-80
2023/04/19 10:11:52;;;;;;;2.92;2.40;;;17.70;46.80;;;;;;5063925;28;20093;-80
2023/04/19 10:14:26;;;;;;;3.00;2.70;;;17.90;47.60;;;;;;5058635;28;20044;-80
2023/04/19 10:16:52;;;;;;;2.97;2.72;;;18.10;47.00;;;;;;5044836;28;20502;-80
2023/04/19 10:19:21;;;;;;;4.32;2.42;;;18.30;47.00;;;;;;5058848;28;20396;-81
2023/04/19 10:21:48;;;;;;;4.35;2.70;;;18.50;47.10;;;;;;5047385;28;20044;-81
2023/04/19 10:24:15;;;;;;;3.72;2.67;;;18.50;45.20;;;;;;5060267;28;20056;-80
2023/04/19 10:27:10;;;;;;;3.10;2.72;;;18.40;44.60;;;;;;5062139;28;20036;-80
2023/04/19 10:29:58;;;;;;;4.65;2.10;;;18.30;41.10;;;;;;5057810;28;20045;-80
2023/04/19 10:32:37;;;;;;;2.97;2.33;;;18.30;41.00;;;;;;5062641;28;20036;-79
2023/04/19 10:35:27;;;;;;;3.40;2.72;;;18.40;42.40;;;;;;5051790;28;20115;-81
2023/04/19 10:38:15;;;;;;;7.97;2.70;;;18.50;40.50;;;;;;5074613;28;20043;-80
2023/04/19 10:41:00;;;;;;;3.38;2.50;;;18.40;41.30;;;;;;5051841;28;20119;-81
2023/04/19 10:43:30;;;;;;;4.50;2.40;;;18.60;40.00;;;;;;5065265;28;20040;-79
2023/04/19 10:46:18;;;;;;;3.33;2.28;;;18.50;41.90;;;;;;5039315;28;20123;-80
2023/04/19 10:48:58;;;;;;;4.28;2.70;;;18.80;41.70;;;;;;5054910;28;20044;-80
2023/04/19 10:51:31;;;;;;;2.83;2.25;;;18.90;40.90;;;;;;5057542;28;20408;-80
2023/04/19 10:54:02;;;;;;;3.33;2.50;;;19.10;40.90;;;;;;5041846;28;20039;-81
2023/04/19 10:56:34;;;;;;;4.60;2.72;;;19.10;40.50;;;;;;5065318;28;20058;-80
2023/04/19 10:59:10;;;;;;;2.78;2.20;;;19.20;38.80;;;;;;5044045;28;20036;-80
2023/04/19 11:01:49;;;;;;;2.90;2.22;;;19.20;39.50;;;;;;5074253;28;20040;-81
2023/04/19 11:04:20;;;;;;;5.63;2.30;;;19.30;39.80;;;;;;5047304;28;20501;-80
2023/04/19 11:06:51;;;;;;;2.95;2.45;;;19.40;40.00;;;;;;5052085;28;20492;-80
2023/04/19 11:09:31;;;;;;;2.75;2.20;;;19.40;39.20;;;;;;5042169;28;20036;-80
2023/04/19 11:11:59;;;;;;;3.22;2.80;;;19.80;38.10;;;;;;5058492;28;20072;-79
2023/04/19 11:14:26;;;;;;;3.28;2.05;;;20.10;39.40;;;;;;5061774;28;20413;-81
2023/04/19 11:16:51;;;;;;;2.72;1.98;;;20.20;38.50;;;;;;5073963;28;20028;-82
2023/04/19 11:19:18;;;;;;;2.22;2.03;;;20.00;37.90;;;;;;5070196;28;20043;-80
2023/04/19 11:21:48;;;;;;;2.80;2.10;;;20.20;38.50;;;;;;5056171;28;21344;-80
2023/04/19 11:24:17;;;;;;;2.28;1.88;;;20.80;38.00;;;;;;5066942;28;20136;-80
2023/04/19 11:26:47;;;;;;;3.00;2.22;;;20.80;38.20;;;;;;5043327;28;20159;-79
2023/04/19 11:29:13;;;;;;;2.30;1.92;;;21.00;38.20;;;;;;5043081;28;20117;-82
2023/04/19 11:31:39;;;;;;;3.00;1.80;;;20.70;37.00;;;;;;5068105;28;20043;-79
2023/04/19 11:34:04;;;;;;;2.65;2.03;;;20.40;36.00;;;;;;5065208;28;20397;-79
2023/04/19 11:36:35;;;;;;;3.33;1.95;;;20.40;37.20;;;;;;5058556;28;20037;-79
2023/04/19 11:39:04;;;;;;;3.42;2.00;;;20.50;37.60;;;;;;5072530;28;20067;-79
2023/04/19 11:41:37;;;;;;;2.65;2.15;;;20.90;37.90;;;;;;5059229;28;20047;-78
2023/04/19 11:44:03;;;;;;;2.38;2.17;;;21.20;37.30;;;;;;5041924;28;20124;-79
2023/04/19 11:46:29;;;;;;;3.63;2.22;;;21.30;36.90;;;;;;5048649;28;20068;-79
2023/04/19 11:48:55;;;;;;;2.75;2.53;;;21.60;37.20;;;;;;5059855;28;20484;-81
2023/04/19 11:51:21;;;;;;;2.60;2.30;;;21.40;36.60;;;;;;5052069;28;20039;-81
2023/04/19 11:53:46;;;;;;;3.42;2.45;;;21.60;37.50;;;;;;5045445;28;20416;-78
2023/04/19 11:56:14;;;;;;;3.60;2.30;;;21.70;37.80;;;;;;5047067;28;20123;-79
2023/04/19 11:58:49;;;;;;;3.00;2.42;;;22.10;38.00;;;;;;5058060;28;20113;-79
2023/04/19 12:01:19;;;;;;;3.30;2.58;;;22.30;37.20;;;;;;5066952;28;20141;-79
2023/04/19 12:03:55;;;;;;;2.92;2.70;;;22.30;37.00;;;;;;5059830;28;20519;-81
2023/04/19 12:06:28;;;;;;;2.90;2.60;;;22.70;36.70;;;;;;5054484;28;20036;-79
2023/04/19 12:08:55;;;;;;;2.88;2.42;;;22.90;36.40;;;;;;5046390;28;20553;-78
2023/04/19 12:11:25;;;;;;;3.15;2.85;;;23.40;37.20;;;;;;5067394;28;20059;-78
2023/04/19 12:14:10;;;;;;;5.07;3.08;;;23.30;37.40;;;;;;5063397;28;20032;-78
2023/04/19 12:16:36;;;;;;;3.58;2.58;;;23.80;36.50;;;;;;5073502;28;20674;-79
2023/04/19 12:19:16;;;;;;;3.65;2.53;;;23.60;36.50;;;;;;5068998;28;20056;-80
2023/04/19 12:21:45;;;;;;;3.60;2.95;;;23.40;35.60;;;;;;5061930;28;20039;-79
2023/04/19 12:24:14;;;;;;;3.20;2.88;;;23.70;36.70;;;;;;5047555;28;20032;-79
2023/04/19 12:26:54;;;;;;;2.70;2.50;;;23.60;36.20;;;;;;5053271;28;20051;-80
2023/04/19 12:29:19;;;;;;;3.45;2.80;;;23.60;34.60;;;;;;5076816;28;20484;-79
2023/04/19 12:31:45;;;;;;;4.25;3.15;;;23.60;35.70;;;;;;5079175;28;20115;-79
2023/04/19 12:34:10;;;;;;;3.63;3.13;;;23.80;36.80;;;;;;5065666;28;20518;-79
2023/04/19 12:36:36;;;;;;;4.28;3.35;;;24.40;37.00;;;;;;5051281;28;20048;-78
2023/04/19 12:39:02;;;;;;;4.03;3.42;;;24.70;37.40;;;;;;5072086;28;20043;-81
2023/04/19 12:41:28;;;;;;;3.72;3.42;;;24.40;36.50;;;;;;5077559;28;20461;-81
2023/04/19 12:43:53;;;;;;;3.70;3.33;;;24.50;36.60;;;;;;5061485;28;20089;-80
2023/04/19 12:46:19;;;;;;;3.55;3.22;;;24.50;36.80;;;;;;5076683;28;20036;-81
2023/04/19 12:48:45;;;;;;;4.30;3.20;;;24.60;36.60;;;;;;5081524;28;20412;-81